Time;durP1;ratioP1;P1;durP2;ratioP2;P2;SDS_P1;SDS_P2;PMS_P1;PMS_P2;Temp;Humidity;BMP_temperature;BMP_pressure;BME280_temperature;BME280_humidity;BME280_pressure;Samples;Min_cycle;Max_cycle;Signal;HPM_P1;HPM_P2
2021/10/26 00:01:19;;;;;;;62.60;31.73;;;;;;;3.35;84.35;101408.63;5029706;28;20021;-69
2021/10/26 00:03:45;;;;;;;59.35;29.85;;;;;;;3.35;84.46;101405.16;5028799;28;20100;-68
2021/10/26 00:06:10;;;;;;;58.40;28.40;;;;;;;3.29;84.59;101398.28;5015697;28;20085;-68
2021/10/26 00:08:36;;;;;;;51.90;29.00;;;;;;;3.32;84.44;101403.47;5025030;28;20026;-69
2021/10/26 00:11:02;;;;;;;55.03;29.15;;;;;;;3.32;84.50;101399.97;5026512;28;20033;-68
2021/10/26 00:13:27;;;;;;;48.20;27.58;;;;;;;3.30;84.92;101407.09;5019339;28;20030;-68
2021/10/26 00:15:53;;;;;;;52.72;28.25;;;;;;;3.28;85.18;101398.34;5029021;28;20033;-68
2021/10/26 00:18:19;;;;;;;55.85;26.98;;;;;;;3.25;85.77;101396.69;5028979;28;20053;-69
2021/10/26 00:20:45;;;;;;;48.65;26.73;;;;;;;3.29;85.90;101406.22;5026695;28;20130;-69
2021/10/26 00:23:10;;;;;;;45.13;27.40;;;;;;;3.26;86.28;101400.22;5019970;28;20493;-68
2021/10/26 00:25:36;;;;;;;45.38;24.40;;;;;;;3.21;86.63;101392.44;5013135;28;20108;-69
2021/10/26 00:28:02;;;;;;;43.95;24.30;;;;;;;3.27;86.78;101392.19;5014615;28;20026;-69
2021/10/26 00:30:28;;;;;;;47.67;24.95;;;;;;;3.28;86.98;101399.22;5026590;28;20075;-68
2021/10/26 00:32:54;;;;;;;45.30;25.02;;;;;;;3.28;86.99;101388.63;5023562;28;20364;-69
2021/10/26 00:35:20;;;;;;;46.28;23.40;;;;;;;3.27;86.86;101386.91;5028717;28;20023;-67
2021/10/26 00:37:45;;;;;;;40.42;23.60;;;;;;;3.27;86.98;101378.06;5020742;28;20104;-68
2021/10/26 00:40:12;;;;;;;42.00;22.58;;;;;;;3.32;86.87;101386.72;5022109;28;20029;-68
2021/10/26 00:42:37;;;;;;;37.40;22.55;;;;;;;3.35;86.96;101378.63;5019385;28;20116;-68
2021/10/26 00:45:04;;;;;;;36.47;20.63;;;;;;;3.37;87.24;101382.06;5028362;28;20028;-68
2021/10/26 00:47:29;;;;;;;32.22;19.42;;;;;;;3.38;87.56;101367.88;5010446;28;20398;-68
2021/10/26 00:49:55;;;;;;;34.95;19.55;;;;;;;3.36;87.86;101353.84;5021964;28;20025;-69
2021/10/26 00:52:20;;;;;;;30.80;18.67;;;;;;;3.37;88.34;101348.47;5027448;28;20039;-69
2021/10/26 00:54:46;;;;;;;31.13;15.93;;;;;;;3.56;88.73;101364.47;5025725;28;20039;-69
2021/10/26 00:57:12;;;;;;;28.92;14.13;;;;;;;3.59;89.65;101340.47;5016234;28;20025;-69
2021/10/26 00:59:38;;;;;;;22.70;13.15;;;;;;;3.73;90.13;101348.69;5028068;28;20083;-69
2021/10/26 01:02:03;;;;;;;24.00;13.57;;;;;;;3.96;90.79;101361.78;5028526;28;20029;-69
2021/10/26 01:04:29;;;;;;;21.27;12.20;;;;;;;4.10;91.09;101359.41;5028599;28;20056;-69
2021/10/26 01:06:56;;;;;;;19.55;11.68;;;;;;;4.27;91.25;101360.38;5024323;28;20033;-69
2021/10/26 01:09:22;;;;;;;21.90;12.57;;;;;;;4.40;91.03;101350.03;5028873;28;20454;-69
2021/10/26 01:11:47;;;;;;;23.70;13.23;;;;;;;4.54;90.83;101344.94;5020990;28;20056;-69
2021/10/26 01:14:15;;;;;;;25.38;13.90;;;;;;;4.54;89.85;101321.91;5028084;28;20025;-69
2021/10/26 01:16:41;;;;;;;29.17;14.77;;;;;;;4.84;89.40;101353.28;5019027;28;20033;-70
2021/10/26 01:19:07;;;;;;;35.90;18.25;;;;;;;4.92;88.71;101343.13;5029577;28;20059;-67
2021/10/26 01:21:33;;;;;;;31.60;16.63;;;;;;;5.03;88.10;101341.66;5021348;28;20029;-67
2021/10/26 01:23:58;;;;;;;22.40;13.38;;;;;;;5.09;87.31;101332.56;5023943;28;20034;-68
2021/10/26 01:26:24;;;;;;;25.92;13.88;;;;;;;5.24;86.81;101337.97;5023964;28;20072;-64
2021/10/26 01:28:50;;;;;;;21.70;11.57;;;;;;;5.30;85.85;101337.66;5027945;28;20444;-64
2021/10/26 01:31:15;;;;;;;24.05;11.65;;;;;;;5.39;85.07;101334.53;5026439;28;20025;-63
2021/10/26 01:33:41;;;;;;;18.23;11.38;;;;;;;5.37;84.58;101325.78;5027857;28;20104;-64
2021/10/26 01:36:07;;;;;;;20.50;11.57;;;;;;;5.47;84.15;101332.34;5027826;28;20422;-64
2021/10/26 01:38:32;;;;;;;19.40;11.18;;;;;;;5.59;83.44;101336.19;5028230;28;20048;-64
2021/10/26 01:40:58;;;;;;;15.70;10.88;;;;;;;5.65;82.84;101330.53;5032092;28;20060;-63
2021/10/26 01:43:23;;;;;;;20.25;10.95;;;;;;;5.70;82.36;101321.38;5031884;28;20487;-63
2021/10/26 01:45:51;;;;;;;16.52;10.82;;;;;;;5.77;81.81;101321.94;5031188;28;20036;-64
2021/10/26 01:48:16;;;;;;;15.32;10.02;;;;;;;5.81;81.75;101320.81;5031807;28;20026;-64
2021/10/26 01:50:42;;;;;;;16.63;10.30;;;;;;;5.85;81.40;101315.31;5031030;28;20047;-64
2021/10/26 01:53:08;;;;;;;16.30;9.82;;;;;;;5.88;80.50;101314.25;5031638;28;20029;-70
2021/10/26 01:55:34;;;;;;;13.60;10.20;;;;;;;5.86;80.54;101301.03;5022392;28;20494;-70
2021/10/26 01:57:59;;;;;;;14.93;10.30;;;;;;;5.94;80.18;101314.78;5021965;28;20022;-69
2021/10/26 02:00:25;;;;;;;19.70;9.43;;;;;;;6.00;79.87;101314.47;5028306;28;20022;-70
2021/10/26 02:02:50;;;;;;;16.20;9.88;;;;;;;6.04;79.09;101305.41;5029797;28;20045;-69
2021/10/26 02:05:17;;;;;;;16.88;9.57;;;;;;;6.05;78.86;101300.91;5028792;28;20116;-69
2021/10/26 02:07:44;;;;;;;13.82;8.68;;;;;;;6.09;78.71;101303.34;5028514;28;20025;-69
2021/10/26 02:10:10;;;;;;;16.20;10.68;;;;;;;6.15;78.63;101308.34;5023625;28;20041;-69
2021/10/26 02:12:36;;;;;;;16.08;9.10;;;;;;;6.17;78.26;101301.13;5030103;28;20139;-70
2021/10/26 02:15:03;;;;;;;16.20;9.25;;;;;;;6.21;77.68;101297.34;5026096;28;20133;-69
2021/10/26 02:17:29;;;;;;;15.55;9.43;;;;;;;6.25;77.96;101292.69;5023316;28;20416;-69
2021/10/26 02:19:55;;;;;;;13.15;8.82;;;;;;;6.26;77.99;101284.63;5021957;28;20041;-69
2021/10/26 02:22:20;;;;;;;16.52;9.57;;;;;;;6.23;77.36;101283.94;5024500;28;20091;-69
2021/10/26 02:24:46;;;;;;;15.38;9.80;;;;;;;6.27;77.64;101286.38;5016591;28;20057;-64
2021/10/26 02:27:13;;;;;;;15.15;9.75;;;;;;;6.23;77.10;101284.78;5018800;28;20041;-64
2021/10/26 02:29:38;;;;;;;16.73;10.73;;;;;;;6.32;77.01;101300.28;5021894;28;20034;-64
2021/10/26 02:32:05;;;;;;;17.52;9.85;;;;;;;6.34;76.49;101292.19;5019143;28;20021;-64
2021/10/26 02:34:30;;;;;;;15.32;10.50;;;;;;;6.31;76.79;101295.03;5017309;28;20175;-64
2021/10/26 02:36:56;;;;;;;19.48;11.43;;;;;;;6.27;76.80;101296.16;5018447;28;20105;-64
2021/10/26 02:39:22;;;;;;;17.60;11.00;;;;;;;6.23;76.59;101287.44;5017515;28;20036;-64
2021/10/26 02:41:47;;;;;;;18.33;11.20;;;;;;;6.19;77.04;101282.41;5019381;28;20643;-64
2021/10/26 02:44:13;;;;;;;16.63;11.30;;;;;;;6.23;76.99;101295.44;5014685;28;20030;-64
2021/10/26 02:46:39;;;;;;;18.02;11.23;;;;;;;6.26;77.29;101295.28;5021753;28;20037;-64
2021/10/26 02:49:04;;;;;;;21.15;11.18;;;;;;;6.21;77.56;101289.34;5016257;28;20045;-64
2021/10/26 02:51:29;;;;;;;20.05;10.45;;;;;;;6.24;77.76;101299.84;5018948;28;20038;-64
2021/10/26 02:53:55;;;;;;;16.75;11.65;;;;;;;6.23;77.26;101298.09;5015123;28;20022;-64
2021/10/26 02:56:20;;;;;;;17.17;10.30;;;;;;;6.15;77.44;101289.69;5015007;28;20227;-64
2021/10/26 02:58:46;;;;;;;19.38;11.77;;;;;;;6.18;77.00;101292.19;5014470;28;20034;-64
2021/10/26 03:01:12;;;;;;;17.38;11.45;;;;;;;6.24;77.64;101301.63;5013214;28;20085;-64
2021/10/26 03:03:38;;;;;;;22.55;11.85;;;;;;;6.22;77.42;101299.06;5020254;28;20438;-69
2021/10/26 03:06:05;;;;;;;18.83;11.30;;;;;;;6.19;77.81;101285.91;5013379;28;20108;-69
2021/10/26 03:08:31;;;;;;;17.35;11.73;;;;;;;6.21;77.80;101292.03;5020468;28;20143;-69
2021/10/26 03:10:57;;;;;;;18.63;12.05;;;;;;;6.18;77.88;101286.00;5022656;28;20025;-69
2021/10/26 03:13:23;;;;;;;19.30;11.57;;;;;;;6.18;78.35;101286.00;5016574;28;20041;-69
2021/10/26 03:15:48;;;;;;;18.58;11.20;;;;;;;6.25;78.36;101298.91;5016568;28;20021;-69
2021/10/26 03:18:14;;;;;;;17.13;11.30;;;;;;;6.25;78.43;101298.91;5029519;28;20041;-69
2021/10/26 03:20:40;;;;;;;16.52;11.13;;;;;;;6.24;78.52;101297.19;5020681;28;20037;-70
2021/10/26 03:23:06;;;;;;;17.38;11.35;;;;;;;6.27;77.98;101294.34;5025996;28;20072;-70
2021/10/26 03:25:32;;;;;;;19.02;10.98;;;;;;;6.26;78.30;101295.28;5024968;28;20476;-70
2021/10/26 03:27:57;;;;;;;16.55;10.90;;;;;;;6.29;77.65;101287.13;5027577;28;20033;-69
2021/10/26 03:30:23;;;;;;;19.92;12.13;;;;;;;6.27;77.44;101275.72;5027693;28;20037;-69
2021/10/26 03:32:48;;;;;;;22.83;11.98;;;;;;;6.33;77.48;101288.69;5029504;28;20048;-63
2021/10/26 03:35:14;;;;;;;16.77;11.18;;;;;;;6.34;77.49;101286.88;5029340;28;20105;-62
2021/10/26 03:37:41;;;;;;;20.95;12.90;;;;;;;6.34;77.84;101279.75;5029601;28;20112;-62
2021/10/26 03:40:08;;;;;;;21.50;12.27;;;;;;;6.33;77.49;101275.38;5029390;28;20033;-63
2021/10/26 03:42:34;;;;;;;18.98;11.65;;;;;;;6.34;77.58;101286.88;5028971;28;20307;-63
2021/10/26 03:44:59;;;;;;;20.23;12.10;;;;;;;6.32;77.66;101281.63;5028288;28;20025;-63
2021/10/26 03:47:25;;;;;;;20.23;13.55;;;;;;;6.35;76.91;101285.91;5027182;28;20057;-68
2021/10/26 03:49:51;;;;;;;18.02;11.73;;;;;;;6.34;77.10;101287.75;5029749;28;20503;-68
2021/10/26 03:52:16;;;;;;;21.25;11.95;;;;;;;6.37;76.72;101292.91;5029950;28;20056;-69
2021/10/26 03:54:42;;;;;;;20.52;12.80;;;;;;;6.36;77.01;101285.84;5029585;28;20035;-69
2021/10/26 03:57:12;;;;;;;22.80;12.40;;;;;;;6.44;76.09;101288.06;5029311;28;20099;-69
2021/10/26 03:59:39;;;;;;;19.75;12.13;;;;;;;6.42;75.93;101274.84;5022033;28;20524;-68
2021/10/26 04:02:10;;;;;;;27.60;13.50;;;;;;;6.42;76.10;101285.50;5027007;28;20029;-68
2021/10/26 04:04:36;;;;;;;15.55;11.00;;;;;;;6.42;76.57;101282.84;5026789;28;20033;-68
2021/10/26 04:07:04;;;;;;;16.73;10.60;;;;;;;6.42;76.22;101280.16;5022950;28;20036;-69
2021/10/26 04:09:45;;;;;;;19.08;11.15;;;;;;;6.44;76.13;101283.63;5027718;28;20546;-69
2021/10/26 04:12:23;;;;;;;19.30;11.30;;;;;;;6.48;76.03;101295.81;5022708;28;20044;-70
2021/10/26 04:14:49;;;;;;;20.70;10.60;;;;;;;6.45;75.45;101280.00;5024329;28;20039;-68
2021/10/26 04:17:15;;;;;;;18.52;11.15;;;;;;;6.39;75.79;101283.00;5030002;28;20475;-68
2021/10/26 04:19:40;;;;;;;18.92;11.60;;;;;;;6.39;75.34;101276.84;5021018;28;20300;-68
2021/10/26 04:22:07;;;;;;;23.40;11.65;;;;;;;6.54;74.61;101284.81;5023480;28;20033;-69
2021/10/26 04:24:34;;;;;;;14.25;10.40;;;;;;;6.53;75.05;101283.13;5028929;28;20021;-68
2021/10/26 04:26:59;;;;;;;16.85;11.18;;;;;;;6.52;74.72;101280.53;5025751;28;20164;-68
2021/10/26 04:29:25;;;;;;;15.73;10.73;;;;;;;6.52;74.57;101280.53;5022005;28;20037;-68
2021/10/26 04:31:50;;;;;;;17.40;10.18;;;;;;;6.52;74.59;101280.53;5013198;28;20117;-68
2021/10/26 04:34:16;;;;;;;16.90;11.50;;;;;;;6.54;74.65;101286.63;5018823;28;20018;-67
2021/10/26 04:36:41;;;;;;;16.40;10.85;;;;;;;6.52;74.62;101289.38;5016278;28;20080;-69
2021/10/26 04:39:07;;;;;;;16.75;10.35;;;;;;;6.51;74.83;101269.00;5013376;28;20441;-69
2021/10/26 04:41:35;;;;;;;20.50;10.52;;;;;;;6.58;74.23;101272.19;5019893;28;20042;-68
2021/10/26 04:44:02;;;;;;;19.42;10.57;;;;;;;6.61;73.91;101272.03;5028281;28;20116;-68
2021/10/26 04:46:30;;;;;;;20.50;12.25;;;;;;;6.64;74.20;101274.50;5028608;28;20031;-68
2021/10/26 04:48:55;;;;;;;21.33;11.60;;;;;;;6.63;74.27;101271.00;5028131;28;20091;-68
2021/10/26 04:51:21;;;;;;;18.88;11.82;;;;;;;6.65;73.64;101273.56;5027711;28;20025;-68
2021/10/26 04:53:47;;;;;;;16.35;11.30;;;;;;;6.67;73.22;101274.31;5014826;28;20040;-67
2021/10/26 04:56:13;;;;;;;15.90;10.82;;;;;;;6.64;73.38;101256.72;5028517;28;20025;-67
2021/10/26 04:58:38;;;;;;;19.33;11.30;;;;;;;6.64;73.67;101255.84;5021944;28;20049;-67
2021/10/26 05:01:04;;;;;;;14.75;10.05;;;;;;;6.70;73.77;101268.81;5020728;28;20032;-67
2021/10/26 05:03:31;;;;;;;18.55;11.00;;;;;;;6.71;73.33;101267.91;5019370;28;20083;-68
2021/10/26 05:05:57;;;;;;;18.10;11.00;;;;;;;6.75;73.10;101280.09;5025790;28;20121;-68
2021/10/26 05:08:23;;;;;;;16.90;9.80;;;;;;;6.73;72.84;101268.66;5029893;28;20053;-68
2021/10/26 05:10:48;;;;;;;18.02;11.55;;;;;;;6.75;72.98;101272.94;5030896;28;20052;-68
2021/10/26 05:13:14;;;;;;;20.15;10.98;;;;;;;6.75;72.98;101264.94;5030425;28;20037;-67
2021/10/26 05:15:39;;;;;;;19.15;11.75;;;;;;;6.78;72.46;101283.44;5029053;28;20031;-68
2021/10/26 05:18:05;;;;;;;20.42;11.25;;;;;;;6.79;72.73;101276.31;5035009;28;20124;-68
2021/10/26 05:20:33;;;;;;;22.20;12.02;;;;;;;6.82;72.30;101279.66;5034372;28;20514;-68
2021/10/26 05:22:59;;;;;;;25.52;11.45;;;;;;;6.84;72.32;101279.59;5031453;28;20028;-67
2021/10/26 05:25:24;;;;;;;18.83;10.98;;;;;;;6.84;72.44;101275.09;5026914;28;20022;-67
2021/10/26 05:27:50;;;;;;;18.65;11.48;;;;;;;6.85;72.28;101281.28;5033777;28;20156;-67
2021/10/26 05:30:15;;;;;;;17.08;11.60;;;;;;;6.85;71.96;101289.28;5026858;28;20087;-68
2021/10/26 05:32:41;;;;;;;22.45;12.18;;;;;;;6.90;72.25;101292.53;5031185;28;20061;-69
2021/10/26 05:35:07;;;;;;;21.52;12.95;;;;;;;6.90;72.22;101292.53;5021028;28;20030;-68
2021/10/26 05:37:32;;;;;;;21.58;12.80;;;;;;;6.88;71.90;101290.00;5029508;28;20029;-68
2021/10/26 05:39:58;;;;;;;24.85;13.13;;;;;;;6.90;71.81;101298.75;5032875;28;20485;-68
2021/10/26 05:42:23;;;;;;;25.10;12.85;;;;;;;6.90;71.48;101300.53;5028276;28;20489;-68
2021/10/26 05:44:50;;;;;;;25.88;13.90;;;;;;;6.95;71.99;101307.34;5032094;28;20025;-68
2021/10/26 05:47:15;;;;;;;23.23;12.68;;;;;;;6.94;71.36;101304.78;5033644;28;20036;-68
2021/10/26 05:49:41;;;;;;;21.70;13.30;;;;;;;6.87;71.60;101293.56;5034433;28;20496;-68
2021/10/26 05:52:06;;;;;;;20.00;12.35;;;;;;;6.95;71.73;101306.47;5032026;28;20037;-66
2021/10/26 05:54:32;;;;;;;20.02;12.73;;;;;;;6.95;71.63;101304.69;5027535;28;20349;-68
2021/10/26 05:56:57;;;;;;;23.25;11.93;;;;;;;6.98;71.23;101307.19;5030242;28;20029;-68
2021/10/26 05:59:23;;;;;;;20.27;12.48;;;;;;;6.97;71.24;101301.94;5031744;28;20033;-67
2021/10/26 06:01:49;;;;;;;28.08;13.70;;;;;;;6.93;71.58;101293.22;5023633;28;20493;-68
2021/10/26 06:04:15;;;;;;;23.17;13.60;;;;;;;6.94;71.17;101296.78;5030173;28;20483;-67
2021/10/26 06:06:41;;;;;;;22.73;12.93;;;;;;;7.06;70.88;101319.22;5031254;28;20064;-67
2021/10/26 06:09:06;;;;;;;24.88;12.32;;;;;;;7.04;71.14;101311.28;5024125;28;20033;-67
2021/10/26 06:11:33;;;;;;;21.27;12.98;;;;;;;7.04;71.01;101314.81;5031103;28;20040;-67
2021/10/26 06:14:07;;;;;;;19.95;12.80;;;;;;;7.11;70.67;101315.31;5019806;28;20018;-68
2021/10/26 06:16:35;;;;;;;26.50;13.18;;;;;;;7.05;70.54;101302.34;5028419;28;20032;-68
2021/10/26 06:19:00;;;;;;;26.05;13.40;;;;;;;7.13;70.38;101320.56;5030797;28;20562;-68
2021/10/26 06:21:27;;;;;;;20.38;13.65;;;;;;;7.17;70.93;101319.44;5031003;28;20116;-68
2021/10/26 06:23:53;;;;;;;26.73;13.35;;;;;;;7.17;70.04;101319.44;5030740;28;20064;-68
2021/10/26 06:26:20;;;;;;;24.90;13.95;;;;;;;7.18;70.76;101313.16;5029605;28;20029;-68
2021/10/26 06:28:46;;;;;;;22.73;14.23;;;;;;;7.21;70.29;101319.16;5031463;28;20025;-69
2021/10/26 06:31:12;;;;;;;20.92;12.52;;;;;;;7.26;69.86;101327.78;5029107;28;20060;-68
2021/10/26 06:33:37;;;;;;;23.50;15.15;;;;;;;7.25;70.12;101318.03;5031489;28;20431;-68
2021/10/26 06:36:03;;;;;;;28.02;16.33;;;;;;;7.33;69.91;101322.94;5031201;28;20028;-68
2021/10/26 06:38:29;;;;;;;23.25;15.23;;;;;;;7.35;69.91;101321.03;5030686;28;20027;-68
2021/10/26 06:40:54;;;;;;;20.75;13.57;;;;;;;7.40;69.66;101324.28;5030745;28;20468;-68
2021/10/26 06:43:20;;;;;;;23.15;13.88;;;;;;;7.46;69.55;101331.94;5030490;28;20582;-68
2021/10/26 06:45:45;;;;;;;32.00;17.00;;;;;;;7.50;69.01;101336.13;5030637;28;20030;-69
2021/10/26 06:48:11;;;;;;;26.40;15.00;;;;;;;7.56;69.69;101343.78;5030796;28;20050;-69
2021/10/26 06:50:36;;;;;;;25.25;13.85;;;;;;;7.61;68.85;101336.38;5030775;28;20503;-68
2021/10/26 06:53:02;;;;;;;26.90;14.75;;;;;;;7.64;69.24;101350.38;5025540;28;20463;-68
2021/10/26 06:55:27;;;;;;;26.88;15.05;;;;;;;7.68;68.50;101335.06;5023102;28;20026;-68
2021/10/26 06:57:53;;;;;;;27.58;16.05;;;;;;;7.73;68.86;101347.19;5028864;28;20152;-68
2021/10/26 07:00:19;;;;;;;27.63;15.77;;;;;;;7.80;68.45;101339.69;5030302;28;20704;-68
2021/10/26 07:02:56;;;;;;;21.42;14.05;;;;;;;7.86;68.68;101342.81;5029100;28;20017;-69
2021/10/26 07:05:24;;;;;;;19.67;12.35;;;;;;;7.91;68.45;101355.91;5030263;28;20075;-68
2021/10/26 07:07:50;;;;;;;21.20;13.90;;;;;;;7.98;68.10;101349.22;5029878;28;20091;-68
2021/10/26 07:10:17;;;;;;;21.23;13.75;;;;;;;8.01;67.47;101352.59;5028337;28;20370;-68
2021/10/26 07:12:43;;;;;;;29.90;16.65;;;;;;;8.08;67.44;101361.06;5030535;28;20383;-68
2021/10/26 07:15:10;;;;;;;22.83;13.23;;;;;;;8.12;67.20;101355.44;5029873;28;20025;-68
2021/10/26 07:17:37;;;;;;;23.42;14.02;;;;;;;8.18;66.93;101354.22;5029855;28;20053;-68
2021/10/26 07:20:06;;;;;;;22.50;13.57;;;;;;;8.21;66.71;101349.56;5027248;28;20569;-68
2021/10/26 07:22:32;;;;;;;19.95;14.07;;;;;;;8.36;66.85;101355.78;5022133;28;20395;-68
2021/10/26 07:25:00;;;;;;;17.13;12.80;;;;;;;8.35;66.20;101348.75;5029416;28;20029;-69
2021/10/26 07:27:26;;;;;;;17.38;12.27;;;;;;;8.50;66.46;101353.09;5027936;28;20480;-67
2021/10/26 07:29:51;;;;;;;18.90;12.52;;;;;;;8.59;66.49;101348.06;5028089;28;20032;-67
2021/10/26 07:32:19;;;;;;;20.02;12.13;;;;;;;8.63;66.31;101352.25;5024221;28;20025;-68
2021/10/26 07:34:45;;;;;;;20.35;11.77;;;;;;;8.76;65.41;101342.47;5027981;28;20013;-68
2021/10/26 07:37:10;;;;;;;18.08;11.60;;;;;;;8.89;64.75;101347.91;5028882;28;20419;-67
2021/10/26 07:39:45;;;;;;;17.60;11.73;;;;;;;9.05;64.15;101353.97;5028619;28;20051;-67
2021/10/26 07:42:11;;;;;;;19.48;12.75;;;;;;;9.21;63.38;101360.03;5029711;28;20032;-68
2021/10/26 07:44:37;;;;;;;21.23;12.30;;;;;;;9.41;63.00;101356.06;5024308;28;20028;-68
2021/10/26 07:47:03;;;;;;;18.58;11.90;;;;;;;9.56;62.44;101353.22;5029792;28;20047;-67
2021/10/26 07:49:30;;;;;;;23.38;13.05;;;;;;;9.69;61.72;101348.75;5028911;28;20113;-67
2021/10/26 07:51:57;;;;;;;21.00;12.23;;;;;;;9.75;61.03;101351.00;5014596;28;20129;-68
2021/10/26 07:54:23;;;;;;;18.20;12.32;;;;;;;9.79;60.94;101344.47;5016983;28;20022;-68
2021/10/26 07:56:48;;;;;;;18.90;11.32;;;;;;;9.86;60.39;101337.72;5020186;28;20087;-69
2021/10/26 07:59:14;;;;;;;19.60;11.85;;;;;;;9.85;60.29;101343.19;5028803;28;20051;-67
2021/10/26 08:01:40;;;;;;;17.23;10.98;;;;;;;9.82;60.35;101333.53;5029270;28;20112;-67
2021/10/26 08:04:06;;;;;;;15.93;11.00;;;;;;;9.84;60.58;101334.31;5026845;28;20071;-68
2021/10/26 08:06:31;;;;;;;18.58;10.68;;;;;;;9.90;60.27;101341.91;5028297;28;20045;-68
2021/10/26 08:08:57;;;;;;;16.45;10.75;;;;;;;9.94;60.10;101339.88;5028725;28;20028;-68
2021/10/26 08:11:24;;;;;;;16.95;10.77;;;;;;;9.95;60.08;101341.59;5028511;28;20041;-68
2021/10/26 08:13:50;;;;;;;19.40;11.20;;;;;;;9.97;60.35;101337.88;5027402;28;20038;-67
2021/10/26 08:16:16;;;;;;;18.27;11.52;;;;;;;10.01;59.95;101333.13;5028838;28;20022;-67
2021/10/26 08:18:44;;;;;;;15.98;10.85;;;;;;;10.05;59.60;101337.31;5028553;28;20045;-66
2021/10/26 08:21:12;;;;;;;17.00;11.07;;;;;;;10.02;59.49;101324.97;5028342;28;20122;-68
2021/10/26 08:23:40;;;;;;;19.98;11.00;;;;;;;10.11;59.76;101327.06;5028628;28;20083;-67
2021/10/26 08:26:08;;;;;;;17.80;10.55;;;;;;;10.14;59.67;101325.97;5028243;28;20068;-69
2021/10/26 08:28:34;;;;;;;18.35;10.65;;;;;;;10.14;59.18;101318.81;5027082;28;20468;-68
2021/10/26 08:34:07;;;;;;;17.95;10.90;;;;;;;10.25;58.63;101318.06;5026694;28;20048;-68
2021/10/26 08:36:33;;;;;;;14.32;10.38;;;;;;;10.31;58.37;101318.47;5027089;28;20029;-68
2021/10/26 08:38:59;;;;;;;22.02;11.48;;;;;;;10.34;58.57;101317.38;5028467;28;20032;-67
2021/10/26 08:41:26;;;;;;;13.80;10.07;;;;;;;10.43;58.19;101325.66;5028329;28;20399;-66
2021/10/26 08:43:52;;;;;;;19.05;10.35;;;;;;;10.47;57.91;101327.13;5028351;28;20063;-67
2021/10/26 08:46:19;;;;;;;16.15;10.95;;;;;;;10.55;57.12;101319.38;5027053;28;20071;-69
2021/10/26 08:48:51;;;;;;;17.85;10.70;;;;;;;10.58;56.99;101323.69;5028159;28;20061;-67
2021/10/26 08:51:17;;;;;;;16.13;10.73;;;;;;;10.63;56.68;101327.75;5007678;28;20057;-69
2021/10/26 08:53:45;;;;;;;16.13;11.27;;;;;;;10.66;56.33;101327.53;5021866;28;20065;-69
2021/10/26 08:56:10;;;;;;;16.42;10.27;;;;;;;10.70;56.37;101317.44;5027036;28;20116;-67
2021/10/26 08:58:36;;;;;;;17.52;9.85;;;;;;;10.75;56.06;101309.91;5028103;28;20117;-67
2021/10/26 09:01:03;;;;;;;14.43;10.10;;;;;;;10.86;56.09;101321.56;5027867;28;20659;-67
2021/10/26 09:03:37;;;;;;;15.73;10.75;;;;;;;11.01;55.70;101320.47;5028010;28;20108;-68
2021/10/26 09:06:04;;;;;;;14.05;9.85;;;;;;;11.07;55.40;101316.47;5027844;28;20021;-69
2021/10/26 09:08:29;;;;;;;17.80;9.57;;;;;;;11.15;55.13;101319.41;5028296;28;20029;-67
2021/10/26 09:11:23;;;;;;;13.20;9.75;;;;;;;11.16;54.93;101308.56;5028460;28;20088;-69
2021/10/26 09:16:50;;;;;;;17.45;9.70;;;;;;;11.45;54.10;101309.09;5025923;28;20040;-67
2021/10/26 09:19:26;;;;;;;14.63;9.70;;;;;;;11.63;53.17;101302.34;5025360;28;20060;-62
2021/10/26 09:22:02;;;;;;;13.25;8.90;;;;;;;11.82;52.88;101313.38;5027787;28;20033;-62
2021/10/26 09:24:28;;;;;;;16.08;9.18;;;;;;;12.04;52.35;101293.75;5027464;28;20741;-63
2021/10/26 09:26:57;;;;;;;15.70;8.85;;;;;;;12.29;51.36;101294.38;5027673;28;20440;-61
2021/10/26 09:29:29;;;;;;;13.77;9.43;;;;;;;12.67;51.16;101288.63;5028046;28;20506;-62
2021/10/26 09:32:22;;;;;;;14.50;9.30;;;;;;;13.27;49.14;101286.28;5027685;28;20087;-62
2021/10/26 09:34:59;;;;;;;16.52;10.15;;;;;;;14.31;46.88;101272.69;5025266;28;20199;-63
2021/10/26 09:37:31;;;;;;;14.38;8.88;;;;;;;15.90;43.10;101260.53;5027517;28;20392;-63
2021/10/26 09:40:00;;;;;;;13.30;8.38;;;;;;;17.40;39.77;101247.34;5027458;28;20460;-62
2021/10/26 09:42:27;;;;;;;15.82;9.50;;;;;;;18.68;37.42;101251.97;5026215;28;20094;-63
2021/10/26 09:45:02;;;;;;;14.55;9.02;;;;;;;19.60;35.50;101240.81;5025029;28;20021;-62
2021/10/26 09:47:30;;;;;;;13.02;7.88;;;;;;;20.08;34.41;101235.31;5027649;28;20104;-64
2021/10/26 09:50:00;;;;;;;11.23;8.25;;;;;;;20.22;34.21;101235.66;5027505;28;20025;-61
2021/10/26 09:52:29;;;;;;;14.57;9.05;;;;;;;20.11;33.94;101213.22;5027585;28;20037;-63
2021/10/26 09:55:15;;;;;;;12.95;7.80;;;;;;;19.81;34.32;101199.44;5026015;28;20104;-63
2021/10/26 09:58:02;;;;;;;14.35;9.00;;;;;;;19.51;34.45;101228.22;5027446;28;20037;-63
2021/10/26 10:00:32;;;;;;;12.52;8.40;;;;;;;19.07;35.27;101229.50;5029099;28;20025;-62
2021/10/26 10:03:19;;;;;;;12.98;8.55;;;;;;;18.47;35.61;101219.78;5031089;28;20033;-68
2021/10/26 10:05:59;;;;;;;13.07;8.40;;;;;;;18.04;36.76;101230.75;5031168;28;20496;-68
2021/10/26 10:08:28;;;;;;;13.02;8.23;;;;;;;17.57;37.86;101234.81;5031205;28;20112;-68
2021/10/26 10:11:06;;;;;;;12.35;8.00;;;;;;;17.19;38.69;101235.13;5030828;28;20032;-63
2021/10/26 10:13:38;;;;;;;13.65;8.43;;;;;;;16.79;38.92;101232.81;5030760;28;20063;-62
2021/10/26 10:16:06;;;;;;;11.18;9.00;;;;;;;16.41;39.70;101227.59;5030678;28;20025;-62
2021/10/26 10:18:33;;;;;;;17.95;9.18;;;;;;;16.12;40.64;101228.72;5030457;28;20449;-64
2021/10/26 10:21:00;;;;;;;13.98;8.30;;;;;;;15.84;41.25;101230.53;5030597;28;20100;-64
2021/10/26 10:23:26;;;;;;;13.98;8.18;;;;;;;15.62;41.95;101229.00;5030400;28;20029;-63
2021/10/26 10:25:53;;;;;;;12.23;8.35;;;;;;;15.40;42.32;101217.63;5030837;28;20033;-64
2021/10/26 10:28:21;;;;;;;16.70;8.80;;;;;;;15.27;42.80;101217.91;5025891;28;20060;-64
2021/10/26 10:30:50;;;;;;;13.82;9.25;;;;;;;15.06;43.20;101202.81;5030547;28;20633;-63
2021/10/26 10:33:22;;;;;;;15.13;8.60;;;;;;;14.95;43.31;101211.03;5030495;28;20109;-64
2021/10/26 10:35:50;;;;;;;13.50;9.10;;;;;;;14.89;43.71;101222.41;5030303;28;20082;-64
2021/10/26 10:38:18;;;;;;;14.20;8.40;;;;;;;14.76;44.36;101217.28;5027841;28;20045;-63
2021/10/26 10:40:44;;;;;;;13.23;8.10;;;;;;;14.53;44.54;101187.94;5030368;28;20053;-63
2021/10/26 10:43:09;;;;;;;26.88;9.70;;;;;;;14.59;44.60;101215.25;5030056;28;20076;-63
2021/10/26 10:45:42;;;;;;;12.27;8.90;;;;;;;14.51;44.89;101206.97;5030095;28;20056;-64
2021/10/26 10:48:27;;;;;;;17.50;10.13;;;;;;;14.44;44.68;101208.53;5029898;28;20065;-63
2021/10/26 10:51:10;;;;;;;16.52;9.57;;;;;;;14.38;44.99;101198.28;5030491;28;20089;-63
2021/10/26 10:53:36;;;;;;;16.95;9.23;;;;;;;14.32;45.15;101189.91;5030109;28;20123;-62
2021/10/26 10:56:19;;;;;;;14.68;8.75;;;;;;;14.26;45.56;101191.31;5029810;28;20144;-63
2021/10/26 10:58:46;;;;;;;15.15;9.02;;;;;;;14.22;45.72;101183.59;5030102;28;20503;-69
2021/10/26 11:01:34;;;;;;;11.88;8.00;;;;;;;14.25;45.73;101197.66;5029876;28;20384;-69
2021/10/26 11:04:23;;;;;;;11.82;8.35;;;;;;;14.21;46.02;101181.84;5028482;28;20476;-68
2021/10/26 11:06:53;;;;;;;11.20;7.50;;;;;;;14.26;45.96;101182.34;5029939;28;20511;-68
2021/10/26 11:09:31;;;;;;;11.75;8.88;;;;;;;14.25;45.96;101177.94;5029831;28;20033;-68
2021/10/26 11:12:29;;;;;;;15.32;8.55;;;;;;;14.18;45.76;101169.50;5026824;28;20037;-62
2021/10/26 11:15:19;;;;;;;13.38;8.02;;;;;;;14.26;45.87;101177.81;5029776;28;20113;-63
2021/10/26 11:17:49;;;;;;;12.30;8.45;;;;;;;14.26;45.34;101169.72;5027966;28;20570;-62
2021/10/26 11:20:30;;;;;;;12.75;8.27;;;;;;;14.27;45.41;101166.00;5029473;28;20033;-62
2021/10/26 11:23:04;;;;;;;12.98;8.60;;;;;;;14.30;45.61;101173.84;5029425;28;20369;-63
2021/10/26 11:25:34;;;;;;;12.93;8.13;;;;;;;14.29;45.67;101155.94;5029302;28;20116;-63